Time;durP1;ratioP1;P1;durP2;ratioP2;P2;SDS_P1;SDS_P2;PMS_P1;PMS_P2;Temp;Humidity;BMP_temperature;BMP_pressure;BME280_temperature;BME280_humidity;BME280_pressure;Samples;Min_cycle;Max_cycle;Signal;HPM_P1;HPM_P2
2022/09/23 00:01:19;;;;;;;3.07;2.73;;;15.10;62.10;;;17.84;47.89;101845.13;5034248;28;20198;-59
2022/09/23 00:03:48;;;;;;;3.03;2.73;;;15.10;62.10;;;17.79;48.16;101847.56;5034554;28;20245;-59
2022/09/23 00:06:19;;;;;;;2.60;2.40;;;15.10;62.30;;;17.74;48.19;101845.47;5034469;28;20198;-58
2022/09/23 00:08:49;;;;;;;3.60;3.00;;;15.10;62.40;;;17.76;48.76;101847.97;5034803;28;20206;-60
2022/09/23 00:11:19;;;;;;;3.93;2.87;;;15.10;63.00;;;17.78;49.02;101837.94;5035007;28;20207;-59
2022/09/23 00:13:52;;;;;;;4.13;2.60;;;15.00;62.90;;;17.79;48.44;101842.22;5034277;28;20340;-59
2022/09/23 00:16:23;;;;;;;2.57;2.37;;;15.10;62.80;;;17.77;48.35;101837.09;5034150;28;20182;-58
2022/09/23 00:18:50;;;;;;;4.77;2.83;;;15.10;62.70;;;17.73;48.18;101837.69;5034023;28;20190;-61
2022/09/23 00:21:20;;;;;;;5.13;3.03;;;15.00;62.40;;;17.65;48.74;101835.16;5033801;28;20187;-59
2022/09/23 00:23:48;;;;;;;3.07;2.43;;;15.00;62.60;;;17.55;48.89;101836.34;5034030;28;20264;-61
2022/09/23 00:26:19;;;;;;;4.33;3.03;;;14.90;62.60;;;17.46;48.99;101841.94;5034055;28;20790;-59
2022/09/23 00:28:47;;;;;;;3.83;2.93;;;14.90;63.00;;;17.37;49.39;101838.63;5035111;28;20566;-61
2022/09/23 00:31:18;;;;;;;4.80;2.87;;;14.80;63.10;;;17.32;49.41;101830.38;5033727;28;20274;-59
2022/09/23 00:33:46;;;;;;;3.27;2.97;;;14.80;63.50;;;17.32;49.84;101829.56;5045597;28;20222;-59
2022/09/23 00:36:15;;;;;;;3.70;2.47;;;14.70;64.00;;;17.29;49.27;101829.94;5034014;28;20656;-60
2022/09/23 00:38:44;;;;;;;3.90;2.60;;;14.70;63.70;;;17.27;49.70;101818.66;5033831;28;20194;-59
2022/09/23 00:41:14;;;;;;;3.13;2.33;;;14.60;64.20;;;17.29;49.67;101824.59;5033570;28;20197;-59
2022/09/23 00:43:46;;;;;;;3.23;2.93;;;14.70;64.30;;;17.25;49.59;101820.69;5034050;28;20250;-59
2022/09/23 00:46:21;;;;;;;3.43;3.13;;;14.60;65.00;;;17.16;50.04;101825.31;5033928;28;20246;-60
2022/09/23 00:48:57;;;;;;;4.03;2.60;;;14.60;64.30;;;17.10;50.13;101818.09;5033684;28;20277;-58
2022/09/23 00:51:31;;;;;;;3.03;2.60;;;14.60;64.40;;;17.07;50.40;101810.47;5033413;28;20198;-58
2022/09/23 00:54:00;;;;;;;3.17;2.83;;;14.50;64.70;;;17.02;50.31;101810.22;5051436;28;20733;-62
2022/09/23 00:56:30;;;;;;;4.07;2.57;;;14.50;64.70;;;16.96;50.29;101808.34;5053587;28;20240;-59
2022/09/23 00:59:00;;;;;;;5.27;3.10;;;14.40;64.60;;;16.94;50.26;101805.06;5049464;28;20229;-60
2022/09/23 01:01:28;;;;;;;3.90;3.43;;;14.40;64.80;;;16.92;50.45;101796.44;5033177;28;20207;-59
2022/09/23 01:03:57;;;;;;;3.10;2.80;;;14.30;64.80;;;16.91;50.33;101802.75;5033527;28;20762;-59
2022/09/23 01:06:24;;;;;;;4.37;2.70;;;14.30;65.10;;;16.84;50.74;101796.56;5033308;28;20256;-59
2022/09/23 01:08:52;;;;;;;3.40;3.10;;;14.20;65.30;;;16.73;51.03;101797.91;5033273;28;20191;-59
2022/09/23 01:11:39;;;;;;;3.07;2.77;;;14.20;65.70;;;16.66;50.96;101786.34;5032593;28;20256;-59
2022/09/23 01:14:36;;;;;;;3.00;2.70;;;14.10;65.70;;;16.66;51.08;101794.31;5031958;28;20194;-59
2022/09/23 01:17:14;;;;;;;4.87;2.60;;;14.10;66.20;;;16.72;50.90;101790.91;5033255;28;20198;-59
2022/09/23 01:20:14;;;;;;;4.13;3.07;;;14.10;66.10;;;16.68;51.10;101786.16;5033205;28;20661;-59
2022/09/23 01:22:52;;;;;;;3.37;2.30;;;14.10;66.10;;;16.68;51.02;101784.34;5032611;28;20272;-58
2022/09/23 01:26:00;;;;;;;2.93;2.70;;;14.10;65.80;;;16.56;51.16;101779.69;5033291;28;20197;-60
2022/09/23 01:29:01;;;;;;;4.60;2.90;;;14.10;65.80;;;16.47;51.46;101778.13;5033044;28;20194;-57
2022/09/23 01:31:42;;;;;;;5.00;3.00;;;14.00;65.90;;;16.43;51.26;101774.19;5052737;28;20247;-58
2022/09/23 01:34:15;;;;;;;3.10;2.80;;;13.90;66.00;;;16.41;51.69;101765.56;5053210;28;20257;-58
2022/09/23 01:36:50;;;;;;;3.77;2.60;;;13.80;66.30;;;16.35;51.68;101771.66;5053001;28;20186;-58
2022/09/23 01:39:34;;;;;;;2.63;2.43;;;13.80;66.60;;;16.26;51.79;101769.09;5052904;28;20201;-59
2022/09/23 01:42:15;;;;;;;6.73;2.83;;;13.70;66.60;;;16.15;51.92;101777.53;5052885;28;20198;-59
2022/09/23 01:44:50;;;;;;;4.70;2.73;;;13.70;67.10;;;16.09;52.19;101775.63;5051514;28;20197;-59
2022/09/23 01:47:25;;;;;;;3.37;2.47;;;13.60;67.30;;;16.04;52.38;101772.72;5039961;28;20197;-57
2022/09/23 01:50:01;;;;;;;3.80;2.80;;;13.50;67.40;;;16.00;52.53;101768.75;5052810;28;20247;-61
2022/09/23 01:52:39;;;;;;;2.70;2.50;;;13.50;67.70;;;15.94;52.64;101769.50;5052255;28;20652;-59
2022/09/23 01:55:14;;;;;;;3.10;2.80;;;13.40;67.70;;;15.91;52.53;101767.22;5052736;28;20231;-59
2022/09/23 01:57:48;;;;;;;2.63;2.40;;;13.40;67.90;;;15.85;52.55;101765.31;5052602;28;20181;-59
2022/09/23 02:00:19;;;;;;;3.30;2.80;;;13.40;68.20;;;15.82;53.14;101760.34;5051515;28;20681;-58
2022/09/23 02:02:56;;;;;;;2.67;2.47;;;13.30;68.20;;;15.77;53.01;101765.38;5032220;28;20228;-58
2022/09/23 02:05:29;;;;;;;3.63;2.50;;;13.30;68.40;;;15.75;52.96;101769.22;5032596;28;20178;-61
2022/09/23 02:08:02;;;;;;;3.97;2.80;;;13.20;68.40;;;15.69;53.20;101765.47;5032500;28;20528;-59
2022/09/23 02:10:40;;;;;;;4.83;3.03;;;13.20;68.50;;;15.62;53.54;101759.22;5032253;28;20194;-58
2022/09/23 02:13:16;;;;;;;3.57;2.47;;;13.10;68.80;;;15.58;53.22;101760.63;5032393;28;20214;-58
2022/09/23 02:15:52;;;;;;;5.33;2.80;;;13.10;68.80;;;15.54;53.43;101762.00;5032356;28;20179;-54
2022/09/23 02:18:25;;;;;;;3.30;3.00;;;13.00;68.90;;;15.50;53.85;101760.69;5044504;28;20732;-59
2022/09/23 02:21:00;;;;;;;3.37;2.97;;;13.00;69.30;;;15.46;53.87;101754.09;5051277;28;20592;-59
2022/09/23 02:23:34;;;;;;;6.27;2.70;;;12.90;69.30;;;15.48;53.65;101752.09;5050944;28;20593;-59
2022/09/23 02:26:10;;;;;;;3.10;2.80;;;12.90;69.30;;;15.52;53.68;101753.41;5051892;28;20682;-59
2022/09/23 02:28:51;;;;;;;5.40;3.07;;;12.90;69.60;;;15.50;53.64;101752.72;5051672;28;20186;-59
2022/09/23 02:31:30;;;;;;;3.90;2.90;;;12.90;69.60;;;15.48;53.53;101758.22;5051360;28;20256;-59
2022/09/23 02:34:13;;;;;;;3.20;2.70;;;12.90;69.70;;;15.47;53.83;101750.47;5040381;28;20661;-58
2022/09/23 02:36:51;;;;;;;3.80;2.90;;;12.90;69.90;;;15.45;53.72;101747.16;5046129;28;20244;-58
2022/09/23 02:39:24;;;;;;;3.13;2.50;;;12.80;69.70;;;15.43;53.92;101751.78;5050911;28;20193;-58
2022/09/23 02:42:04;;;;;;;4.07;2.73;;;12.80;69.80;;;15.38;54.02;101743.56;5031592;28;20178;-59
2022/09/23 02:44:32;;;;;;;4.17;3.00;;;12.80;70.10;;;15.37;54.31;101747.19;5032154;28;20257;-58
2022/09/23 02:46:59;;;;;;;3.43;2.90;;;12.80;70.30;;;15.35;54.25;101751.88;5032133;28;20198;-59
2022/09/23 02:49:30;;;;;;;3.50;3.17;;;12.70;70.40;;;15.29;54.51;101741.97;5039382;28;20201;-59
2022/09/23 02:52:03;;;;;;;4.80;3.20;;;12.70;70.40;;;15.22;54.56;101746.34;5050186;28;20225;-58
2022/09/23 02:54:32;;;;;;;3.03;2.80;;;12.70;70.50;;;15.22;54.49;101741.03;5051841;28;20206;-56
2022/09/23 02:57:03;;;;;;;3.87;3.47;;;12.60;70.40;;;15.22;54.53;101746.34;5051650;28;20194;-59
2022/09/23 02:59:33;;;;;;;4.23;2.60;;;12.60;70.50;;;15.22;54.60;101741.03;5051581;28;20574;-57
2022/09/23 03:02:19;;;;;;;3.10;2.60;;;12.60;70.80;;;15.27;54.56;101736.03;5051134;28;20276;-57
2022/09/23 03:05:04;;;;;;;3.03;2.73;;;12.60;70.90;;;15.35;54.26;101730.66;5051262;28;20724;-59
2022/09/23 03:07:46;;;;;;;2.50;2.30;;;12.70;70.90;;;15.43;54.08;101730.53;5047629;28;20198;-58
2022/09/23 03:10:24;;;;;;;4.50;3.00;;;12.70;70.70;;;15.49;54.09;101724.56;5051658;28;20208;-59
2022/09/23 03:13:11;;;;;;;3.17;2.87;;;12.80;70.70;;;15.50;54.16;101723.53;5051418;28;20267;-59
2022/09/23 03:15:50;;;;;;;3.77;2.77;;;12.80;70.50;;;15.48;53.74;101726.38;5051645;28;20619;-58
2022/09/23 03:18:30;;;;;;;4.03;2.70;;;12.80;70.20;;;15.48;53.86;101723.72;5051465;28;20208;-58
2022/09/23 03:21:06;;;;;;;3.03;2.83;;;12.80;70.20;;;15.56;54.09;101720.16;5050844;28;20210;-58
2022/09/23 03:23:38;;;;;;;2.83;2.60;;;12.90;70.90;;;15.67;54.03;101716.22;5031508;28;20260;-59
2022/09/23 03:26:12;;;;;;;3.17;2.67;;;12.90;70.70;;;15.76;53.53;101721.25;5031839;28;20552;-59
2022/09/23 03:28:43;;;;;;;2.57;2.37;;;13.00;70.10;;;15.80;53.35;101717.25;5032029;28;20686;-59
2022/09/23 03:31:13;;;;;;;4.80;2.50;;;13.10;70.00;;;15.87;52.98;101720.81;5031186;28;20206;-59
2022/09/23 03:33:47;;;;;;;3.00;2.60;;;13.10;69.60;;;15.89;53.03;101716.13;5033214;28;20708;-56
2022/09/23 03:39:26;;;;;;;3.60;2.33;;;13.20;69.40;;;15.95;52.58;101695.97;5042304;28;20194;-58
2022/09/23 03:41:59;;;;;;;2.80;2.60;;;13.20;68.90;;;15.96;52.50;101700.28;5054609;28;20291;-58
2022/09/23 03:44:28;;;;;;;4.30;2.50;;;13.30;68.80;;;15.91;52.13;101694.69;5055515;28;20217;-58
2022/09/23 03:47:00;;;;;;;3.03;2.77;;;13.20;68.40;;;15.83;52.82;101697.47;5054927;28;20217;-60
2022/09/23 03:49:33;;;;;;;2.90;2.70;;;13.20;68.50;;;15.75;52.55;101694.91;5054979;28;20243;-57
2022/09/23 03:52:02;;;;;;;2.77;2.57;;;13.10;68.60;;;15.69;52.81;101690.34;5054421;28;20222;-57
2022/09/23 03:54:30;;;;;;;4.80;2.80;;;13.10;68.60;;;15.66;52.83;101680.91;5046996;28;20202;-59
2022/09/23 03:56:59;;;;;;;2.90;2.70;;;13.00;68.70;;;15.64;52.71;101688.25;5034669;28;20194;-58
2022/09/23 03:59:27;;;;;;;2.57;2.37;;;13.00;68.80;;;15.64;53.25;101682.09;5034486;28;20199;-58
2022/09/23 04:01:54;;;;;;;3.67;2.40;;;13.00;69.30;;;15.66;53.12;101680.09;5034553;28;20214;-58
2022/09/23 04:04:21;;;;;;;4.40;2.80;;;13.00;69.60;;;15.67;53.01;101679.88;5034532;28;20191;-58
2022/09/23 04:06:49;;;;;;;3.10;2.40;;;13.00;69.30;;;15.66;52.84;101678.25;5034393;28;20621;-56
2022/09/23 04:09:17;;;;;;;2.60;2.40;;;13.00;69.00;;;15.63;52.97;101686.59;5034291;28;20198;-58
2022/09/23 04:11:45;;;;;;;4.13;2.87;;;13.00;69.00;;;15.60;52.83;101676.31;5035163;28;20218;-59
2022/09/23 04:14:12;;;;;;;4.37;2.63;;;12.90;68.90;;;15.58;52.82;101673.03;5034290;28;20194;-59
2022/09/23 04:16:39;;;;;;;2.70;2.43;;;12.90;68.90;;;15.53;53.01;101670.09;5034243;28;20198;-58
2022/09/23 04:19:08;;;;;;;4.20;2.80;;;12.90;69.20;;;15.48;53.12;101667.19;5034324;28;20258;-57
2022/09/23 04:21:39;;;;;;;3.67;2.57;;;12.80;69.10;;;15.43;53.17;101665.03;5033917;28;20259;-59
2022/09/23 04:24:07;;;;;;;2.33;2.13;;;12.80;69.20;;;15.43;53.05;101666.88;5033823;28;20722;-58
2022/09/23 04:26:37;;;;;;;5.67;2.70;;;12.80;70.10;;;15.44;53.23;101660.56;5034997;28;20198;-58
2022/09/23 04:29:05;;;;;;;2.70;2.50;;;12.80;69.50;;;15.46;53.29;101661.22;5034183;28;20190;-59
2022/09/23 04:31:33;;;;;;;3.40;2.17;;;12.80;69.70;;;15.47;53.34;101657.59;5033667;28;20273;-57
2022/09/23 04:34:00;;;;;;;4.20;2.83;;;12.80;69.50;;;15.52;53.76;101648.06;5052436;28;20214;-56
2022/09/23 04:36:29;;;;;;;3.93;2.80;;;12.80;70.00;;;15.58;53.44;101652.63;5053763;28;20194;-58
2022/09/23 04:38:56;;;;;;;2.70;2.50;;;12.80;69.80;;;15.65;53.22;101655.38;5053416;28;20194;-58
2022/09/23 04:41:23;;;;;;;3.80;2.63;;;12.90;69.70;;;15.72;53.08;101652.78;5052534;28;20716;-59
2022/09/23 04:43:52;;;;;;;3.67;2.60;;;13.00;69.70;;;15.75;52.70;101645.28;5051357;28;20346;-58
2022/09/23 04:46:19;;;;;;;3.53;2.83;;;13.00;69.20;;;15.73;52.66;101644.66;5052241;28;20198;-59
2022/09/23 04:48:47;;;;;;;2.80;2.50;;;13.00;68.80;;;15.75;52.71;101647.13;5053393;28;20190;-59
2022/09/23 04:51:18;;;;;;;3.37;2.77;;;13.00;68.90;;;15.71;52.53;101652.00;5052184;28;20198;-59
2022/09/23 04:53:48;;;;;;;3.27;2.97;;;13.00;68.60;;;15.62;52.53;101652.28;5053549;28;20214;-59
2022/09/23 04:56:18;;;;;;;2.90;2.60;;;13.00;68.50;;;15.58;52.60;101641.19;5052432;28;20206;-58
2022/09/23 04:58:46;;;;;;;3.00;2.80;;;13.00;68.70;;;15.55;52.44;101641.56;5051637;28;20208;-58
2022/09/23 05:01:18;;;;;;;4.13;3.07;;;12.90;68.50;;;15.51;53.00;101642.94;5051700;28;20663;-58
2022/09/23 05:03:46;;;;;;;4.23;3.10;;;12.80;68.80;;;15.48;52.75;101643.28;5053401;28;20209;-58
2022/09/23 05:06:14;;;;;;;5.43;3.00;;;12.80;68.70;;;15.42;52.82;101644.00;5052973;28;20197;-57
2022/09/23 05:08:47;;;;;;;3.70;2.50;;;12.80;68.60;;;15.36;52.52;101636.78;5053516;28;20248;-59
2022/09/23 05:11:16;;;;;;;3.47;2.83;;;12.70;68.50;;;15.34;52.98;101634.31;5052865;28;20232;-59
2022/09/23 05:13:45;;;;;;;3.53;2.83;;;12.70;68.90;;;15.30;52.95;101643.66;5052865;28;20221;-58
2022/09/23 05:16:12;;;;;;;5.00;3.30;;;12.70;68.90;;;15.26;53.02;101630.94;5051030;28;20200;-59
2022/09/23 05:18:44;;;;;;;3.97;3.57;;;12.60;68.90;;;15.23;53.39;101637.44;5052714;28;20269;-58
2022/09/23 05:21:15;;;;;;;3.47;2.67;;;12.60;69.40;;;15.23;53.28;101636.59;5052593;28;20217;-58
2022/09/23 05:23:46;;;;;;;4.27;3.00;;;12.50;69.30;;;15.22;53.19;101641.09;5051236;28;20213;-58
2022/09/23 05:26:14;;;;;;;3.57;2.67;;;12.50;69.40;;;15.19;53.10;101640.63;5052422;28;20208;-60
2022/09/23 05:28:41;;;;;;;5.00;3.73;;;12.50;69.30;;;15.15;53.20;101639.34;5052658;28;20223;-59
2022/09/23 05:31:13;;;;;;;5.77;5.00;;;12.50;69.20;;;15.12;53.56;101640.50;5050700;28;20249;-59
2022/09/23 05:33:53;;;;;;;4.57;3.17;;;12.50;69.70;;;15.17;53.48;101634.66;5050786;28;20295;-59
2022/09/23 05:36:22;;;;;;;5.07;3.40;;;12.40;70.00;;;15.22;53.38;101630.47;5052502;28;20194;-58
2022/09/23 05:38:50;;;;;;;2.80;2.60;;;12.50;70.00;;;15.24;53.19;101632.94;5057234;28;20603;-60
2022/09/23 05:41:24;;;;;;;3.20;2.90;;;12.50;69.60;;;15.23;53.34;101633.94;5051641;28;20198;-57
2022/09/23 05:43:52;;;;;;;4.23;2.80;;;12.50;69.50;;;15.20;53.18;101636.97;5052405;28;20271;-60
2022/09/23 05:46:23;;;;;;;5.03;3.13;;;12.50;69.40;;;15.13;53.16;101633.41;5052346;28;20194;-58
2022/09/23 05:48:54;;;;;;;6.77;3.10;;;12.50;69.40;;;15.06;53.57;101638.59;5049610;28;20189;-60
2022/09/23 05:51:27;;;;;;;7.73;3.13;;;12.40;69.50;;;15.00;53.63;101635.88;5051319;28;20190;-59
2022/09/23 05:53:59;;;;;;;5.47;3.00;;;12.40;69.90;;;14.88;53.98;101638.13;5050306;28;20248;-58
2022/09/23 05:56:27;;;;;;;6.33;3.17;;;12.30;70.10;;;14.81;54.18;101634.53;5051311;28;20197;-59
2022/09/23 05:58:57;;;;;;;4.80;3.00;;;12.30;70.20;;;14.77;54.29;101642.03;5051926;28;20224;-62
2022/09/23 06:01:27;;;;;;;3.83;3.30;;;12.20;70.30;;;14.80;54.26;101633.72;5051631;28;20206;-57
2022/09/23 06:03:58;;;;;;;4.13;3.00;;;12.20;70.60;;;14.83;54.17;101641.28;5049689;28;20279;-59
2022/09/23 06:06:28;;;;;;;3.63;3.20;;;12.20;71.00;;;14.83;54.36;101636.00;5051195;28;20194;-57
2022/09/23 06:08:59;;;;;;;2.97;2.63;;;12.20;70.80;;;14.84;54.18;101637.66;5051674;28;20194;-59
2022/09/23 06:11:30;;;;;;;3.17;2.70;;;12.20;70.80;;;14.83;54.35;101636.00;5051337;28;20170;-56
2022/09/23 06:13:59;;;;;;;3.80;3.20;;;12.20;70.70;;;14.86;54.00;101635.66;5052051;28;20224;-57
2022/09/23 06:16:30;;;;;;;7.67;6.70;;;12.10;70.70;;;14.93;54.51;101629.63;5052447;28;20652;-59
2022/09/23 06:19:04;;;;;;;3.10;2.63;;;12.20;71.50;;;15.03;54.18;101632.81;5051875;28;20174;-57
2022/09/23 06:21:35;;;;;;;4.03;3.00;;;12.20;71.10;;;15.06;53.95;101643.09;5032876;28;20248;-58
2022/09/23 06:24:03;;;;;;;3.13;2.83;;;12.30;70.80;;;15.05;53.89;101636.16;5046506;28;20210;-58
2022/09/23 06:26:33;;;;;;;3.03;2.83;;;12.30;70.50;;;15.05;53.78;101644.09;5032557;28;20225;-58
2022/09/23 06:29:03;;;;;;;5.27;3.07;;;12.30;70.30;;;15.07;53.94;101634.13;5041234;28;20279;-58
2022/09/23 06:31:31;;;;;;;4.30;2.90;;;12.30;70.40;;;15.11;53.89;101643.38;5051152;28;20650;-56
2022/09/23 06:34:00;;;;;;;7.80;3.57;;;12.40;70.40;;;15.09;53.84;101656.81;5051592;28;20275;-59
2022/09/23 06:36:39;;;;;;;6.50;5.67;;;12.40;70.40;;;15.07;54.05;101647.38;5041152;28;20708;-62
2022/09/23 06:39:12;;;;;;;4.83;2.87;;;12.40;70.40;;;15.10;53.92;101655.78;5031346;28;20187;-57
2022/09/23 06:41:40;;;;;;;4.10;3.23;;;12.40;70.40;;;15.16;53.76;101651.59;5031286;28;20252;-59
2022/09/23 06:44:07;;;;;;;6.17;3.10;;;12.40;70.40;;;15.28;53.42;101650.97;5031470;28;20190;-57
2022/09/23 06:46:35;;;;;;;5.23;2.90;;;12.50;70.50;;;15.50;53.49;101650.06;5031255;28;20237;-59
2022/09/23 06:49:04;;;;;;;5.77;3.33;;;12.60;70.90;;;15.83;53.04;101645.16;5031035;28;20667;-56
2022/09/23 06:51:32;;;;;;;3.13;2.63;;;12.70;70.80;;;16.24;52.97;101645.41;5031760;28;20199;-60
2022/09/23 06:53:59;;;;;;;4.50;2.97;;;13.00;71.20;;;16.76;51.76;101645.09;5050524;28;20241;-57
2022/09/23 06:56:26;;;;;;;5.63;2.97;;;13.30;70.30;;;17.31;50.52;101646.91;5051341;28;20189;-59
2022/09/23 06:58:54;;;;;;;5.63;2.80;;;13.70;69.40;;;17.82;48.96;101650.06;5051367;28;20685;-60
2022/09/23 07:01:22;;;;;;;6.90;2.67;;;14.20;67.40;;;18.21;47.73;101647.50;5050653;28;20962;-59
2022/09/23 07:03:49;;;;;;;4.53;3.50;;;14.70;65.70;;;18.56;47.50;101643.72;5051351;28;20233;-57
2022/09/23 07:06:18;;;;;;;5.93;2.30;;;15.00;65.10;;;18.84;46.27;101639.00;5050871;28;20598;-59
2022/09/23 07:08:47;;;;;;;5.20;2.50;;;15.40;63.00;;;19.00;44.64;101650.25;5050773;28;20315;-59
2022/09/23 07:11:15;;;;;;;6.97;2.40;;;15.60;60.50;;;18.93;44.38;101645.75;5055216;28;20194;-60
2022/09/23 07:13:42;;;;;;;4.27;3.07;;;15.80;59.50;;;18.82;44.67;101648.22;5055371;28;20221;-58
2022/09/23 07:16:10;;;;;;;5.73;2.40;;;15.80;59.40;;;18.76;44.76;101649.03;5055474;28;20220;-61
2022/09/23 07:18:39;;;;;;;6.17;2.43;;;15.80;59.20;;;18.66;44.77;101648.66;5056232;28;20198;-59
2022/09/23 07:21:10;;;;;;;3.53;2.73;;;15.80;59.20;;;18.64;45.22;101645.34;5055837;28;20186;-59
2022/09/23 07:23:39;;;;;;;3.70;2.33;;;15.80;59.70;;;18.71;44.98;101646.97;5040178;28;20222;-57
2022/09/23 07:26:07;;;;;;;2.97;2.67;;;15.80;59.80;;;18.83;45.06;101650.69;5035868;28;20187;-60
2022/09/23 07:28:36;;;;;;;3.13;2.57;;;15.80;59.90;;;18.94;44.67;101652.72;5035418;28;20190;-59
2022/09/23 07:31:06;;;;;;;3.90;2.47;;;15.80;59.50;;;18.99;44.05;101641.44;5035167;28;20194;-60
2022/09/23 07:33:34;;;;;;;4.80;2.47;;;15.80;59.20;;;18.99;44.53;101643.28;5036677;28;20231;-61
2022/09/23 07:36:08;;;;;;;2.80;2.33;;;15.90;59.20;;;18.92;43.92;101660.09;5035527;28;20278;-60
2022/09/23 07:38:36;;;;;;;3.03;2.23;;;15.90;58.40;;;18.86;44.29;101644.94;5036542;28;20639;-61
2022/09/23 07:41:15;;;;;;;2.77;2.17;;;15.90;58.80;;;18.82;44.13;101643.72;5052097;28;20835;-58
2022/09/23 07:43:43;;;;;;;3.37;2.37;;;15.90;58.60;;;18.79;43.96;101649.47;5055172;28;20304;-59
2022/09/23 07:46:16;;;;;;;3.47;3.10;;;15.90;58.20;;;18.77;44.23;101643.50;5056496;28;20178;-60
2022/09/23 07:48:44;;;;;;;10.90;9.33;;;15.90;58.50;;;18.83;44.44;101645.34;5054921;28;20174;-57
2022/09/23 07:51:17;;;;;;;4.20;2.37;;;15.90;58.70;;;18.81;44.10;101646.56;5054385;28;20269;-58
2022/09/23 07:53:47;;;;;;;3.17;2.43;;;15.90;58.40;;;18.86;44.44;101639.59;5048418;28;20586;-58
2022/09/23 07:56:18;;;;;;;3.27;2.43;;;15.90;59.10;;;18.84;43.94;101633.66;5053932;28;20178;-59
2022/09/23 07:58:58;;;;;;;3.77;2.23;;;16.00;58.20;;;18.84;44.08;101635.50;5053901;28;20186;-59
2022/09/23 08:01:30;;;;;;;3.33;2.93;;;16.00;58.20;;;18.81;44.34;101630.56;5053472;28;20234;-59
2022/09/23 08:04:25;;;;;;;2.77;2.50;;;16.00;58.30;;;18.91;44.50;101629.13;5054381;28;20539;-58
2022/09/23 08:06:56;;;;;;;6.10;3.40;;;16.00;58.50;;;19.07;44.48;101624.38;5053786;28;20202;-54
2022/09/23 08:09:27;;;;;;;2.33;2.13;;;16.10;58.70;;;19.26;43.65;101620.84;5051648;28;20277;-53
2022/09/23 08:11:57;;;;;;;3.57;2.00;;;16.20;58.30;;;19.51;43.14;101624.50;5052582;28;20288;-54
2022/09/23 08:14:24;;;;;;;3.17;2.30;;;16.30;58.00;;;19.91;42.97;101623.28;5043150;28;20198;-52
2022/09/23 08:16:52;;;;;;;3.60;2.27;;;16.50;58.10;;;20.69;41.82;101626.47;5049736;28;20220;-52
2022/09/23 08:19:20;;;;;;;2.97;2.27;;;16.80;58.20;;;21.37;40.08;101625.38;5048752;28;20190;-52
2022/09/23 08:21:48;;;;;;;5.20;2.80;;;17.20;57.00;;;22.02;38.88;101622.94;5050416;28;20202;-54
2022/09/23 08:24:19;;;;;;;2.33;1.80;;;17.60;55.80;;;22.61;37.59;101627.41;5048423;28;20240;-56
2022/09/23 08:26:47;;;;;;;2.73;2.27;;;18.00;55.60;;;23.19;36.13;101624.75;5049462;28;20198;-52
2022/09/23 08:29:19;;;;;;;4.40;2.47;;;18.40;53.10;;;23.86;35.60;101621.31;5037695;28;20292;-52
2022/09/23 08:31:48;;;;;;;2.43;2.13;;;18.90;52.90;;;24.48;33.93;101624.06;5035356;28;20201;-53
2022/09/23 08:34:17;;;;;;;2.70;2.33;;;19.50;51.40;;;24.88;33.70;101619.31;5049497;28;20287;-53
2022/09/23 08:36:45;;;;;;;3.07;1.93;;;20.00;51.00;;;25.25;32.96;101620.38;5053725;28;20535;-53
2022/09/23 08:39:15;;;;;;;2.10;1.77;;;20.50;48.60;;;25.82;33.07;101620.81;5042160;28;20671;-58
2022/09/23 08:41:56;;;;;;;7.20;2.40;;;21.00;49.70;;;26.54;31.16;101623.13;5049763;28;20697;-55
2022/09/23 08:44:42;;;;;;;3.70;2.50;;;21.50;47.40;;;26.75;30.14;101614.94;5050932;28;20190;-55
2022/09/23 08:47:20;;;;;;;3.97;2.57;;;21.90;45.50;;;26.79;30.86;101621.44;5041235;28;20197;-53
2022/09/23 08:49:59;;;;;;;2.30;1.87;;;22.20;44.90;;;26.82;30.24;101614.72;5050467;28;20247;-56
2022/09/23 08:52:34;;;;;;;2.23;2.03;;;22.40;43.90;;;26.74;29.91;101613.28;5052122;28;20221;-57
2022/09/23 08:55:28;;;;;;;3.50;2.17;;;22.50;42.50;;;26.99;30.40;101604.56;5018038;28;20659;-53
2022/09/23 08:58:33;;;;;;;6.53;3.90;;;22.70;43.60;;;27.42;30.27;101603.44;5038774;28;20202;-53
2022/09/23 09:01:15;;;;;;;3.03;2.10;;;23.00;43.90;;;27.66;29.38;101599.19;5046056;28;20193;-53
2022/09/23 09:03:49;;;;;;;3.73;1.83;;;23.20;42.60;;;27.78;29.42;101591.63;5051469;28;20275;-54
2022/09/23 09:06:27;;;;;;;4.23;2.60;;;23.40;42.60;;;28.03;29.45;101601.72;5054532;28;20202;-55
2022/09/23 09:08:59;;;;;;;3.53;2.03;;;23.60;42.80;;;28.12;28.69;101602.81;5036097;28;20199;-55
2022/09/23 09:11:34;;;;;;;2.83;2.00;;;23.70;41.50;;;28.46;28.36;101597.66;5047858;28;20190;-54
2022/09/23 09:14:16;;;;;;;4.67;1.87;;;23.90;41.10;;;28.58;27.13;101590.88;5054870;28;20765;-51
2022/09/23 09:16:57;;;;;;;2.67;1.93;;;24.00;39.80;;;28.48;27.85;101604.44;5054132;28;20550;-56
2022/09/23 09:19:51;;;;;;;2.00;1.80;;;24.10;40.00;;;28.55;27.86;101586.00;5050049;28;20276;-59
2022/09/23 09:22:43;;;;;;;4.87;2.03;;;24.30;40.10;;;28.98;27.48;101590.00;5049493;28;20221;-53
2022/09/23 09:25:35;;;;;;;2.20;2.00;;;24.50;40.00;;;28.58;26.73;101590.06;5043056;28;20214;-52
2022/09/23 09:28:13;;;;;;;2.63;2.10;;;24.50;37.90;;;27.89;27.41;101584.31;5047561;28;20240;-54
2022/09/23 09:30:42;;;;;;;3.20;1.83;;;24.40;38.00;;;27.79;28.16;101582.41;5040224;28;20523;-51
2022/09/23 09:33:22;;;;;;;2.83;1.90;;;24.30;38.40;;;28.04;28.46;101581.69;5044601;28;20214;-51
2022/09/23 09:36:07;;;;;;;3.07;1.77;;;24.30;39.40;;;28.57;27.85;101569.47;5053700;28;20300;-54
2022/09/23 09:38:35;;;;;;;5.93;2.10;;;24.40;39.60;;;29.05;27.27;101568.81;5040270;28;20190;-53
2022/09/23 09:41:14;;;;;;;3.57;1.93;;;24.60;39.20;;;29.52;26.89;101570.28;5049649;28;20642;-53
2022/09/23 09:43:51;;;;;;;3.40;2.13;;;24.90;38.80;;;29.57;26.10;101567.53;5044694;28;21887;-53
2022/09/23 09:46:48;;;;;;;2.57;1.97;;;25.10;37.90;;;29.10;26.27;101566.09;5038579;28;20202;-55
2022/09/23 09:49:32;;;;;;;1.87;1.60;;;25.10;36.70;;;28.71;27.07;101565.97;5050474;28;20194;-52
2022/09/23 09:52:23;;;;;;;1.97;1.80;;;25.10;37.40;;;28.43;26.91;101560.28;5040101;28;20209;-56
2022/09/23 09:54:51;;;;;;;2.37;2.17;;;25.00;36.90;;;28.21;27.03;101557.03;5050325;28;20214;-53
2022/09/23 09:57:35;;;;;;;2.43;1.97;;;24.80;36.70;;;27.87;27.71;101554.00;5048345;28;20201;-54
2022/09/23 10:00:40;;;;;;;2.60;2.00;;;24.60;37.50;;;27.31;28.63;101553.88;5041406;28;20237;-52
2022/09/23 10:03:29;;;;;;;3.83;2.27;;;24.30;37.90;;;26.83;29.31;101551.50;5042279;28;20869;-53
2022/09/23 10:06:21;;;;;;;4.57;2.17;;;24.00;38.60;;;26.37;30.22;101544.94;5044555;28;20202;-57
2022/09/23 10:09:20;;;;;;;4.10;2.33;;;23.60;39.00;;;25.96;30.35;101540.28;5037988;28;20280;-56
2022/09/23 10:12:12;;;;;;;3.13;2.50;;;23.30;39.70;;;25.72;30.59;101533.59;5046932;28;20662;-56
2022/09/23 10:14:39;;;;;;;2.97;2.33;;;23.00;40.20;;;25.54;30.45;101537.44;5060212;28;20260;-61
2022/09/23 10:17:15;;;;;;;5.73;2.60;;;22.70;39.70;;;25.35;30.76;101534.25;5055395;28;20594;-52
2022/09/23 10:19:47;;;;;;;2.03;1.83;;;22.60;40.10;;;25.23;30.83;101533.56;5053939;28;20216;-54
2022/09/23 10:22:28;;;;;;;3.30;2.00;;;22.40;40.50;;;25.20;31.47;101535.97;5057819;28;20314;-58
2022/09/23 10:25:02;;;;;;;5.30;2.23;;;22.30;41.30;;;25.22;31.51;101537.31;5054347;28;20272;-57
2022/09/23 10:27:33;;;;;;;2.77;2.17;;;22.20;42.50;;;25.14;31.95;101531.56;5035310;28;20256;-56
2022/09/23 10:30:04;;;;;;;2.67;2.33;;;22.10;41.90;;;25.07;32.17;101531.75;5041652;28;20196;-53
2022/09/23 10:32:36;;;;;;;3.47;2.43;;;22.10;42.00;;;24.98;31.50;101535.94;5047650;28;20280;-53
2022/09/23 10:35:15;;;;;;;3.90;2.47;;;22.00;41.60;;;24.88;31.49;101538.50;5048515;28;20756;-55
2022/09/23 10:37:48;;;;;;;3.90;2.63;;;22.00;41.30;;;24.85;31.78;101539.81;5047513;28;20251;-57
2022/09/23 10:46:40;;;;;;;6.37;2.47;;;21.70;41.90;;;24.27;33.21;101526.00;5044749;28;20198;-51
2022/09/23 10:49:56;;;;;;;2.60;2.40;;;21.60;42.70;;;24.09;33.65;101524.38;5044851;28;20190;-54